EmailTwitter


Observations de surface / Québec / CYHU (71371)

Régions: Québec | Canada | États-Unis | Europe | France | UK | Ailleurs
Station
Affichage
Infos & localisation pour CYHU (71371) | Aide pour décoder les METARs

Observations prises le 2019-04-22 à 06H00 UTC à MONTREAL/ST HUBE, QB (CYHU)

Etat du ciel: couvert.

Température: 9.0 Celsius

Point de rosée: 7.0 Celsius

Humidité relative: 87%

Vents: Variable à 4 km/h ou 2 noeuds.

Pression au niveau moyen de la mer: 102.18 kilopascals.

Calage altimétrique: 102.17 kilopascals ou 30.17 pouces de mercure.

Visibilité horizontale: 9.00 milles terrestres ou 14.40 kilomètres.

Hauteur du plafond: 1097 mètres ( 3600 pieds ).

Observation METAR:

CYHU 220600Z AUTO VRB02KT 9SM OVC036 09/07 A3017 RMK SLP218=